New Hanover, Illinois
Current Conditions -  °F | °C
As of 11:53 PM on Tuesday 21 Oct 2014 (Local Time) from KCPS Reporting Station
Clear Clear  
Wind Chill: 50°   Ceiling: Unl
Heat Index: 50°   Visibility: 10mi
Dew Point: 41°   Wind: 8mph
Humidity: 71%   Direction: 80°E
Pressure: 30.21"   Gusts: NA
Location:  38.3034°N, 90.1358°W
Report Text: KCPS 220453Z AUTO 08007KT 10SM CLR 10/05 A3021 RMK AO2 SLP229 T01000050
Loading
Personal Weather Stations






























Interactive Weather Map
Tropical Storm Tracking
New forecast layout! Learn more

10-Day Weather Forecast

Advertisements
Track Severe Weather on mobile